Time;durP1;ratioP1;P1;durP2;ratioP2;P2;SDS_P1;SDS_P2;PMS_P1;PMS_P2;Temp;Humidity;BMP_temperature;BMP_pressure;BME280_temperature;BME280_humidity;BME280_pressure;Samples;Min_cycle;Max_cycle;Signal;HPM_P1;HPM_P2
2023/04/24 00:00:22;;;;;;;17.90;13.32;;;9.80;99.90;;;;;;5010476;28;20029;-91
2023/04/24 00:02:47;;;;;;;19.27;15.10;;;9.80;99.90;;;;;;5010399;28;20491;-92
2023/04/24 00:05:14;;;;;;;23.02;16.88;;;9.70;99.90;;;;;;5009299;28;20030;-90
2023/04/24 00:07:41;;;;;;;24.45;17.48;;;9.70;99.90;;;;;;5033643;28;20052;-91
2023/04/24 00:10:08;;;;;;;20.73;14.95;;;9.70;99.90;;;;;;5011303;28;20026;-91
2023/04/24 00:12:33;;;;;;;20.52;15.40;;;9.70;99.90;;;;;;5010549;28;20073;-91
2023/04/24 00:14:59;;;;;;;17.20;13.38;;;9.70;99.90;;;;;;5010462;28;20501;-92
2023/04/24 00:17:25;;;;;;;23.63;15.50;;;9.70;99.90;;;;;;5009800;28;20034;-91
2023/04/24 00:19:51;;;;;;;21.13;15.82;;;9.70;99.90;;;;;;5009824;28;20046;-91
2023/04/24 00:22:17;;;;;;;23.77;18.05;;;9.70;99.90;;;;;;5009308;28;20478;-91
2023/04/24 00:24:43;;;;;;;27.80;19.25;;;9.60;99.90;;;;;;5022732;28;20029;-92
2023/04/24 00:27:08;;;;;;;30.55;20.75;;;9.60;99.90;;;;;;5010367;28;20479;-93
2023/04/24 00:29:34;;;;;;;27.30;19.13;;;9.60;99.90;;;;;;5009996;28;20371;-93
2023/04/24 00:32:00;;;;;;;26.05;18.65;;;9.60;99.90;;;;;;5010879;28;20088;-92
2023/04/24 00:34:25;;;;;;;26.88;17.38;;;9.60;99.90;;;;;;5010956;28;20033;-93
2023/04/24 00:36:52;;;;;;;26.10;18.23;;;9.60;99.90;;;;;;5011185;28;20116;-92
2023/04/24 00:39:18;;;;;;;28.05;19.02;;;9.70;99.90;;;;;;5009571;28;20036;-91
2023/04/24 00:41:45;;;;;;;28.88;19.67;;;9.70;99.90;;;;;;5011513;28;20030;-92
2023/04/24 00:44:11;;;;;;;28.33;19.35;;;9.70;99.90;;;;;;5010445;28;20518;-92
2023/04/24 00:46:36;;;;;;;28.48;18.30;;;9.80;99.90;;;;;;5011190;28;20033;-93
2023/04/24 00:49:02;;;;;;;30.20;19.58;;;9.80;99.90;;;;;;5009225;28;20029;-94
2023/04/24 00:51:28;;;;;;;29.35;20.13;;;9.80;99.90;;;;;;5010096;28;20083;-94
2023/04/24 00:53:53;;;;;;;30.15;20.08;;;9.80;99.90;;;;;;5009956;28;20066;-94
2023/04/24 00:56:19;;;;;;;30.83;20.80;;;9.80;99.90;;;;;;5011175;28;20037;-93
2023/04/24 00:58:45;;;;;;;28.30;19.90;;;9.90;99.90;;;;;;5008850;28;20037;-93
2023/04/24 01:01:11;;;;;;;30.63;21.40;;;9.80;99.90;;;;;;5010002;28;20030;-93
2023/04/24 01:03:37;;;;;;;26.40;20.20;;;9.90;99.90;;;;;;5007594;28;20083;-93
2023/04/24 01:06:04;;;;;;;27.40;20.50;;;9.90;99.90;;;;;;5008264;28;20025;-91
2023/04/24 01:08:30;;;;;;;25.95;20.15;;;9.90;99.90;;;;;;5007924;28;20030;-91
2023/04/24 01:10:57;;;;;;;22.73;17.48;;;9.90;99.90;;;;;;5010391;28;20033;-92
2023/04/24 01:13:23;;;;;;;24.73;18.83;;;9.90;99.90;;;;;;5009849;28;20041;-92
2023/04/24 01:15:49;;;;;;;24.17;17.58;;;9.90;99.90;;;;;;5010077;28;20482;-92
2023/04/24 01:18:15;;;;;;;23.77;18.42;;;9.90;99.90;;;;;;5007548;28;20550;-93
2023/04/24 01:20:43;;;;;;;25.48;19.17;;;9.90;99.90;;;;;;5010368;28;20121;-93
2023/04/24 01:23:09;;;;;;;25.05;19.38;;;9.90;99.90;;;;;;5011007;28;20033;-93
2023/04/24 01:25:35;;;;;;;23.15;17.10;;;9.90;99.90;;;;;;5013360;28;20038;-92
2023/04/24 01:28:00;;;;;;;24.60;18.70;;;9.90;99.90;;;;;;5012648;28;20125;-91
2023/04/24 01:30:27;;;;;;;25.80;18.27;;;9.90;99.90;;;;;;5011960;28;20504;-93
2023/04/24 01:32:53;;;;;;;27.08;18.75;;;9.90;99.90;;;;;;5013240;28;20018;-93
2023/04/24 01:35:19;;;;;;;25.27;18.83;;;10.00;99.90;;;;;;5013455;28;20052;-92
2023/04/24 01:37:45;;;;;;;25.77;19.88;;;9.90;99.90;;;;;;5013285;28;20022;-93
2023/04/24 01:40:11;;;;;;;27.17;19.23;;;10.00;99.90;;;;;;5012156;28;20060;-93
2023/04/24 01:42:37;;;;;;;29.70;20.55;;;9.90;99.90;;;;;;5012397;28;20367;-92
2023/04/24 01:45:05;;;;;;;30.98;22.38;;;9.90;99.90;;;;;;5012211;28;20030;-93
2023/04/24 01:47:31;;;;;;;30.05;21.92;;;10.00;99.90;;;;;;5013479;28;20038;-92
2023/04/24 01:49:57;;;;;;;34.80;22.52;;;9.90;99.90;;;;;;5014903;28;20029;-92
2023/04/24 01:52:23;;;;;;;33.35;23.52;;;10.00;99.90;;;;;;5014188;28;20145;-92
2023/04/24 01:54:49;;;;;;;38.45;24.95;;;9.90;99.90;;;;;;5013568;28;20072;-92
2023/04/24 01:57:15;;;;;;;37.38;25.77;;;9.90;99.90;;;;;;5012577;28;20038;-93
2023/04/24 01:59:41;;;;;;;35.97;26.25;;;9.90;99.90;;;;;;5012830;28;20046;-93
2023/04/24 02:02:08;;;;;;;39.03;25.35;;;9.90;99.90;;;;;;5011805;28;20036;-92
2023/04/24 02:04:33;;;;;;;32.40;24.23;;;9.90;99.90;;;;;;5012307;28;20046;-93
2023/04/24 02:06:59;;;;;;;33.40;24.30;;;9.90;99.90;;;;;;5012102;28;20093;-93
2023/04/24 02:09:25;;;;;;;36.45;25.25;;;9.90;99.90;;;;;;5012142;28;20025;-92
2023/04/24 02:11:50;;;;;;;34.13;24.40;;;9.80;99.90;;;;;;5014381;28;20025;-94
2023/04/24 02:14:16;;;;;;;35.92;24.80;;;9.80;99.90;;;;;;5011162;28;20084;-92
2023/04/24 02:16:42;;;;;;;35.30;23.77;;;9.80;99.90;;;;;;5012672;28;20025;-93
2023/04/24 02:19:07;;;;;;;33.88;23.50;;;9.80;99.90;;;;;;5012521;28;20034;-92
2023/04/24 02:21:33;;;;;;;32.58;22.10;;;9.80;99.90;;;;;;5012181;28;20283;-93
2023/04/24 02:23:59;;;;;;;29.88;21.15;;;9.80;99.90;;;;;;5011749;28;20540;-91
2023/04/24 02:26:25;;;;;;;30.73;22.58;;;9.80;99.90;;;;;;5012959;28;20072;-92
2023/04/24 02:28:50;;;;;;;35.47;24.20;;;9.80;99.90;;;;;;5011778;28;20127;-92
2023/04/24 02:31:16;;;;;;;30.77;21.35;;;9.90;99.90;;;;;;5010432;28;20025;-93
2023/04/24 02:33:41;;;;;;;33.75;21.77;;;9.80;99.90;;;;;;5012005;28;20040;-93
2023/04/24 02:36:07;;;;;;;36.47;23.10;;;9.80;99.90;;;;;;5011729;28;20423;-93
2023/04/24 02:38:32;;;;;;;29.17;22.45;;;9.80;99.90;;;;;;5011309;28;20061;-90
2023/04/24 02:40:58;;;;;;;32.63;21.75;;;9.80;99.90;;;;;;5010957;28;20037;-90
2023/04/24 02:43:24;;;;;;;28.55;20.80;;;9.80;99.90;;;;;;5010751;28;20044;-93
2023/04/24 02:45:49;;;;;;;33.45;22.38;;;9.80;99.90;;;;;;5012653;28;20030;-91
2023/04/24 02:48:15;;;;;;;30.15;21.95;;;9.80;99.90;;;;;;5010316;28;20029;-92
2023/04/24 02:50:40;;;;;;;32.28;23.27;;;9.80;99.90;;;;;;5011520;28;20033;-91
2023/04/24 02:53:06;;;;;;;31.63;23.73;;;9.70;99.90;;;;;;5012080;28;20026;-93
2023/04/24 02:55:32;;;;;;;36.63;25.77;;;9.70;99.90;;;;;;5011967;28;20038;-91
2023/04/24 02:57:57;;;;;;;33.42;24.70;;;9.70;99.90;;;;;;5012438;28;20053;-89
2023/04/24 03:00:23;;;;;;;40.20;27.13;;;9.70;99.90;;;;;;5010109;28;20034;-91
2023/04/24 03:02:49;;;;;;;40.78;27.60;;;9.60;99.90;;;;;;5011055;28;20022;-92
2023/04/24 03:05:15;;;;;;;38.92;27.73;;;9.60;99.90;;;;;;5011284;28;20029;-92
2023/04/24 03:07:41;;;;;;;46.40;29.63;;;9.60;99.90;;;;;;5009765;28;20596;-91
2023/04/24 03:10:09;;;;;;;39.83;29.50;;;9.60;99.90;;;;;;5012078;28;20083;-92
2023/04/24 03:12:34;;;;;;;45.35;30.55;;;9.60;99.90;;;;;;5010527;28;20494;-91
2023/04/24 03:15:00;;;;;;;50.47;33.67;;;9.60;99.90;;;;;;5011469;28;20137;-92
2023/04/24 03:17:25;;;;;;;51.15;33.65;;;9.60;99.90;;;;;;5011341;28;20036;-92
2023/04/24 03:19:51;;;;;;;49.47;33.58;;;9.60;99.90;;;;;;5012081;28;20041;-93
2023/04/24 03:22:16;;;;;;;50.97;35.13;;;9.50;99.90;;;;;;5009975;28;20029;-94
2023/04/24 03:24:42;;;;;;;45.13;30.42;;;9.50;99.90;;;;;;5011391;28;20030;-91
2023/04/24 03:27:07;;;;;;;49.13;32.38;;;9.50;99.90;;;;;;5010605;28;20033;-93
2023/04/24 03:29:33;;;;;;;50.22;31.73;;;9.50;99.90;;;;;;5011414;28;20045;-91
2023/04/24 03:31:58;;;;;;;43.58;29.83;;;9.40;99.90;;;;;;5011231;28;20026;-92
2023/04/24 03:34:24;;;;;;;51.15;32.72;;;9.40;99.90;;;;;;5010880;28;20029;-91
2023/04/24 03:36:50;;;;;;;54.92;32.92;;;9.40;99.90;;;;;;5011113;28;20026;-91
2023/04/24 03:39:15;;;;;;;48.10;31.35;;;9.40;99.90;;;;;;5010695;28;20061;-92
2023/04/24 03:41:41;;;;;;;50.63;31.42;;;9.40;99.90;;;;;;5011256;28;20058;-93
2023/04/24 03:44:07;;;;;;;44.67;31.17;;;9.40;99.90;;;;;;4998801;28;20037;-91
2023/04/24 03:46:32;;;;;;;46.55;32.22;;;9.30;99.90;;;;;;5007719;28;20021;-91
2023/04/24 03:48:58;;;;;;;45.50;30.42;;;9.30;99.90;;;;;;5012111;28;20053;-89
2023/04/24 03:51:23;;;;;;;43.20;29.08;;;9.30;99.90;;;;;;5005780;28;20033;-89
2023/04/24 03:53:49;;;;;;;42.05;28.75;;;9.30;99.90;;;;;;5011256;28;20096;-89
2023/04/24 03:56:15;;;;;;;46.75;32.17;;;9.30;99.90;;;;;;5011501;28;20029;-89
2023/04/24 03:58:40;;;;;;;45.00;28.83;;;9.30;99.90;;;;;;4999119;28;20046;-91
2023/04/24 04:01:06;;;;;;;41.63;27.38;;;9.30;99.90;;;;;;5007899;28;20018;-91
2023/04/24 04:03:31;;;;;;;43.03;27.63;;;9.30;99.90;;;;;;5007063;28;20050;-91
2023/04/24 04:05:57;;;;;;;38.97;28.27;;;9.20;99.90;;;;;;5010752;28;20045;-91
2023/04/24 04:08:23;;;;;;;43.70;28.45;;;9.20;99.90;;;;;;5011087;28;20030;-92
2023/04/24 04:10:48;;;;;;;43.25;27.35;;;9.30;99.90;;;;;;5009764;28;20096;-93
2023/04/24 04:13:14;;;;;;;40.35;26.85;;;9.30;99.90;;;;;;5011793;28;20430;-92
2023/04/24 04:15:40;;;;;;;38.67;26.60;;;9.30;99.90;;;;;;5012808;28;20038;-92
2023/04/24 04:18:05;;;;;;;40.88;27.20;;;9.30;99.90;;;;;;5027311;28;20431;-90
2023/04/24 04:20:31;;;;;;;37.95;28.35;;;9.30;99.90;;;;;;5008748;28;20129;-91
2023/04/24 04:22:56;;;;;;;39.22;25.80;;;9.20;99.90;;;;;;5009941;28;20022;-90
2023/04/24 04:25:22;;;;;;;37.42;24.50;;;9.30;99.90;;;;;;5011041;28;20095;-89
2023/04/24 04:27:48;;;;;;;38.95;26.08;;;9.30;99.90;;;;;;5010691;28;20048;-89
2023/04/24 04:30:14;;;;;;;40.42;25.50;;;9.30;99.90;;;;;;5008779;28;20026;-90
2023/04/24 04:32:40;;;;;;;38.38;24.98;;;9.30;99.90;;;;;;5010106;28;20387;-90
2023/04/24 04:35:06;;;;;;;37.47;25.80;;;9.30;99.90;;;;;;5008572;28;20050;-90
2023/04/24 04:37:35;;;;;;;33.53;23.80;;;9.30;99.90;;;;;;5010585;28;20033;-90
2023/04/24 04:40:01;;;;;;;32.83;24.05;;;9.30;99.90;;;;;;5009732;28;20041;-90
2023/04/24 04:42:27;;;;;;;34.58;24.60;;;9.30;99.90;;;;;;5010058;28;20060;-90
2023/04/24 04:44:53;;;;;;;34.55;23.88;;;9.30;99.90;;;;;;5010834;28;20022;-88
2023/04/24 04:47:21;;;;;;;34.42;23.60;;;9.20;99.90;;;;;;5008557;28;20109;-89
2023/04/24 04:49:47;;;;;;;30.27;21.45;;;9.20;99.90;;;;;;5010261;28;20490;-87
2023/04/24 04:52:13;;;;;;;31.45;21.38;;;9.20;99.90;;;;;;5006818;28;20470;-86
2023/04/24 04:54:39;;;;;;;31.00;21.35;;;9.20;99.90;;;;;;5004530;28;20034;-87
2023/04/24 04:57:05;;;;;;;34.60;20.77;;;9.20;99.90;;;;;;5002918;28;20120;-87
2023/04/24 04:59:31;;;;;;;27.25;18.65;;;9.20;99.90;;;;;;5014237;28;20524;-87
2023/04/24 05:01:56;;;;;;;25.42;19.27;;;9.20;99.90;;;;;;5013101;28;20109;-88
2023/04/24 05:04:22;;;;;;;30.17;20.77;;;9.20;99.90;;;;;;5003838;28;20061;-87
2023/04/24 05:06:47;;;;;;;29.35;19.98;;;9.20;99.90;;;;;;5008539;28;20122;-88
2023/04/24 05:09:13;;;;;;;28.25;20.73;;;9.10;99.90;;;;;;5015589;28;20065;-88
2023/04/24 05:11:38;;;;;;;28.13;19.60;;;9.10;99.90;;;;;;5013083;28;20088;-88
2023/04/24 05:14:04;;;;;;;27.20;20.05;;;9.10;99.90;;;;;;5013548;28;20033;-88
2023/04/24 05:16:30;;;;;;;26.63;18.65;;;9.10;99.90;;;;;;5012190;28;20030;-89
2023/04/24 05:18:56;;;;;;;28.70;19.08;;;9.10;99.90;;;;;;5014786;28;20405;-89
2023/04/24 05:21:22;;;;;;;26.05;18.05;;;9.10;99.90;;;;;;5013831;28;20025;-88
2023/04/24 05:23:47;;;;;;;26.52;18.95;;;9.20;99.90;;;;;;5008772;28;20116;-89
2023/04/24 05:26:13;;;;;;;25.85;18.60;;;9.20;99.90;;;;;;5010284;28;20026;-90
2023/04/24 05:28:39;;;;;;;24.02;16.67;;;9.20;99.90;;;;;;5011686;28;20037;-88
2023/04/24 05:31:04;;;;;;;20.85;15.27;;;9.20;99.90;;;;;;5011511;28;20026;-89
2023/04/24 05:33:30;;;;;;;20.40;14.70;;;9.20;99.90;;;;;;5009929;28;20505;-89
2023/04/24 05:35:56;;;;;;;18.27;12.10;;;9.20;99.90;;;;;;5015055;28;20030;-89
2023/04/24 05:38:21;;;;;;;15.48;11.10;;;9.10;99.90;;;;;;5018636;28;20037;-91
2023/04/24 05:40:47;;;;;;;15.40;10.40;;;9.20;99.90;;;;;;5015658;28;20478;-89
2023/04/24 05:43:13;;;;;;;12.77;8.52;;;9.20;99.90;;;;;;5011787;28;20034;-89
2023/04/24 05:45:38;;;;;;;15.43;9.57;;;9.20;99.90;;;;;;5015725;28;20057;-89
2023/04/24 05:48:05;;;;;;;14.05;9.07;;;9.20;99.90;;;;;;5005219;28;20030;-88
2023/04/24 05:50:31;;;;;;;15.90;9.43;;;9.20;99.90;;;;;;5010160;28;20038;-90
2023/04/24 05:53:01;;;;;;;13.35;7.72;;;9.20;99.90;;;;;;5006770;28;20026;-90
2023/04/24 05:55:27;;;;;;;12.07;7.10;;;9.20;99.90;;;;;;5008819;28;20026;-90
2023/04/24 05:57:52;;;;;;;11.40;6.95;;;9.20;99.90;;;;;;5014293;28;20033;-91
2023/04/24 06:00:19;;;;;;;7.78;5.43;;;9.20;99.90;;;;;;5006598;28;20029;-90
2023/04/24 06:02:45;;;;;;;6.70;4.22;;;9.20;99.90;;;;;;5016381;28;20076;-89
2023/04/24 06:05:11;;;;;;;5.97;3.25;;;9.20;99.90;;;;;;5014543;28;20052;-89
2023/04/24 06:07:37;;;;;;;5.13;2.78;;;9.10;99.90;;;;;;5014406;28;20117;-88
2023/04/24 06:10:02;;;;;;;3.22;2.40;;;9.10;99.90;;;;;;5004972;28;20057;-91
2023/04/24 06:12:28;;;;;;;4.47;1.98;;;9.10;99.90;;;;;;5007187;28;20031;-91
2023/04/24 06:14:55;;;;;;;4.47;1.98;;;9.10;99.90;;;;;;5011897;28;20036;-92
2023/04/24 06:17:21;;;;;;;2.92;1.30;;;9.00;99.90;;;;;;5012078;28;20098;-91
2023/04/24 06:19:47;;;;;;;2.17;1.30;;;8.90;99.90;;;;;;5010448;28;20068;-92
2023/04/24 06:22:12;;;;;;;2.63;1.00;;;8.80;99.90;;;;;;5012953;28;20217;-91
2023/04/24 06:24:41;;;;;;;2.50;1.20;;;8.80;99.90;;;;;;5013524;28;20555;-93
2023/04/24 06:27:07;;;;;;;2.88;0.70;;;8.80;99.90;;;;;;5013935;28;20053;-92
2023/04/24 06:29:33;;;;;;;2.53;0.70;;;8.80;99.90;;;;;;5016013;28;20026;-93
2023/04/24 06:32:02;;;;;;;2.22;0.50;;;8.80;99.90;;;;;;5007983;28;20029;-94
2023/04/24 06:34:28;;;;;;;1.20;0.40;;;8.80;99.90;;;;;;5011809;28;20552;-94
2023/04/24 06:36:54;;;;;;;0.70;0.30;;;8.80;99.90;;;;;;5016721;28;20022;-94
2023/04/24 06:39:20;;;;;;;1.30;0.50;;;8.80;99.90;;;;;;5015722;28;20040;-96
2023/04/24 06:41:46;;;;;;;0.75;0.20;;;8.80;99.90;;;;;;5018978;28;20022;-95
2023/04/24 06:44:11;;;;;;;2.45;0.20;;;8.80;99.90;;;;;;5026091;28;20105;-96
2023/04/24 06:46:37;;;;;;;1.10;0.20;;;8.70;99.90;;;;;;5037759;28;20025;-96
2023/04/24 06:49:02;;;;;;;0.98;0.30;;;8.70;99.90;;;;;;5034458;28;20034;-95
2023/04/24 06:51:28;;;;;;;0.68;0.20;;;8.60;99.90;;;;;;5027433;28;20022;-96
2023/04/24 06:53:55;;;;;;;0.35;0.10;;;8.50;99.90;;;;;;5032179;28;20056;-95
2023/04/24 06:56:21;;;;;;;0.35;0.13;;;8.50;99.90;;;;;;5032668;28;20105;-96
2023/04/24 06:58:47;;;;;;;1.13;0.20;;;8.40;99.90;;;;;;5028011;28;20022;-96
2023/04/24 07:01:12;;;;;;;0.35;0.13;;;8.40;99.90;;;;;;5022625;28;20037;-95
2023/04/24 07:03:38;;;;;;;0.80;0.30;;;8.30;99.90;;;;;;5017296;28;20128;-95
2023/04/24 07:06:05;;;;;;;2.30;0.30;;;8.30;99.90;;;;;;5008053;28;20057;-94
2023/04/24 07:08:30;;;;;;;2.25;0.40;;;8.30;99.90;;;;;;5010987;28;20034;-95
2023/04/24 07:10:56;;;;;;;1.63;0.60;;;8.30;99.90;;;;;;5012963;28;20089;-95
2023/04/24 07:13:23;;;;;;;1.60;0.70;;;8.40;99.90;;;;;;5012843;28;20018;-92
2023/04/24 07:15:53;;;;;;;1.92;0.85;;;8.40;99.90;;;;;;5005178;28;20026;-95
2023/04/24 07:18:20;;;;;;;3.30;0.60;;;8.40;99.90;;;;;;5007187;28;20026;-95
2023/04/24 07:20:45;;;;;;;1.23;0.50;;;8.40;99.90;;;;;;5011043;28;20030;-94
2023/04/24 07:23:11;;;;;;;1.77;0.70;;;8.50;99.90;;;;;;5012789;28;20030;-96
2023/04/24 07:25:38;;;;;;;2.58;0.90;;;8.40;99.90;;;;;;5006841;28;20057;-95
2023/04/24 07:28:04;;;;;;;5.90;2.72;;;8.40;99.90;;;;;;5009127;28;21194;-93
2023/04/24 07:30:30;;;;;;;7.28;3.83;;;8.50;99.90;;;;;;5011799;28;20041;-94
2023/04/24 07:32:56;;;;;;;11.45;6.90;;;8.50;99.90;;;;;;5008467;28;20035;-95
2023/04/24 07:35:21;;;;;;;13.43;8.35;;;8.50;99.90;;;;;;5009403;28;20144;-94
2023/04/24 07:37:47;;;;;;;15.15;10.45;;;8.40;99.90;;;;;;5009716;28;20025;-93
2023/04/24 07:40:13;;;;;;;14.27;9.52;;;8.40;99.90;;;;;;5009307;28;20053;-95
2023/04/24 07:42:39;;;;;;;19.60;12.65;;;8.40;99.90;;;;;;5014767;28;20026;-95
2023/04/24 07:45:05;;;;;;;20.50;12.82;;;8.40;99.90;;;;;;5015117;28;20040;-96
2023/04/24 07:47:32;;;;;;;17.23;11.32;;;8.30;99.90;;;;;;5023141;28;20029;-95
2023/04/24 07:49:58;;;;;;;24.30;14.38;;;8.20;99.90;;;;;;5016649;28;20042;-96
2023/04/24 07:52:24;;;;;;;26.08;13.80;;;8.20;99.90;;;;;;5019146;28;20117;-95
2023/04/24 07:54:52;;;;;;;24.63;13.57;;;8.10;99.90;;;;;;5015283;28;20034;-96
2023/04/24 07:57:18;;;;;;;21.73;13.70;;;8.20;99.90;;;;;;5016068;28;20053;-95
2023/04/24 07:59:43;;;;;;;26.33;13.88;;;8.20;99.90;;;;;;5015244;28;20387;-94
2023/04/24 08:02:09;;;;;;;23.98;12.55;;;8.10;99.90;;;;;;5013388;28;20140;-95
2023/04/24 08:04:35;;;;;;;23.70;13.82;;;8.10;99.90;;;;;;5014637;28;20048;-96
2023/04/24 08:07:00;;;;;;;27.55;14.02;;;8.10;99.90;;;;;;5013800;28;20073;-96
2023/04/24 08:09:26;;;;;;;31.10;15.82;;;8.10;99.90;;;;;;5014853;28;20062;-95
2023/04/24 08:11:53;;;;;;;29.33;15.57;;;8.10;99.90;;;;;;5012502;28;20030;-95
2023/04/24 08:14:18;;;;;;;31.02;15.80;;;8.10;99.90;;;;;;5016511;28;20057;-95
2023/04/24 08:16:44;;;;;;;31.85;16.55;;;8.10;99.90;;;;;;5015609;28;20034;-96
2023/04/24 08:19:10;;;;;;;38.47;20.00;;;8.10;99.90;;;;;;5017286;28;20048;-96
2023/04/24 08:21:35;;;;;;;29.80;15.25;;;8.10;99.90;;;;;;5016804;28;20052;-95
2023/04/24 08:24:04;;;;;;;45.53;17.67;;;8.10;99.90;;;;;;5016332;28;20039;-95
2023/04/24 08:26:30;;;;;;;43.78;17.02;;;8.10;99.90;;;;;;5015330;28;20026;-95
2023/04/24 08:28:56;;;;;;;46.45;18.15;;;8.10;99.90;;;;;;5018641;28;20080;-95
2023/04/24 08:31:22;;;;;;;52.17;19.40;;;8.10;99.90;;;;;;5017991;28;20037;-95
2023/04/24 08:33:48;;;;;;;47.55;17.65;;;8.20;99.90;;;;;;5016874;28;20438;-95
2023/04/24 08:36:13;;;;;;;49.42;17.40;;;8.20;99.90;;;;;;5016813;28;20026;-94
2023/04/24 08:38:39;;;;;;;54.67;17.10;;;8.30;99.90;;;;;;5017867;28;20042;-95
2023/04/24 08:41:07;;;;;;;57.85;20.15;;;8.30;99.90;;;;;;5009441;28;20026;-95
2023/04/24 08:43:36;;;;;;;53.70;18.05;;;8.30;99.90;;;;;;5011911;28;20117;-96
2023/04/24 08:46:03;;;;;;;55.45;17.33;;;8.30;99.90;;;;;;5029695;28;20101;-95
2023/04/24 08:48:29;;;;;;;37.97;12.20;;;8.30;99.90;;;;;;5012119;28;20494;-95
2023/04/24 08:50:56;;;;;;;34.13;11.13;;;8.30;99.90;;;;;;5015205;28;20033;-93
2023/04/24 08:53:23;;;;;;;35.53;8.90;;;8.20;99.90;;;;;;5010152;28;20026;-95
2023/04/24 08:55:51;;;;;;;32.83;10.43;;;8.20;99.90;;;;;;5014312;28;20025;-94
2023/04/24 08:58:17;;;;;;;33.13;11.20;;;8.20;99.90;;;;;;5017788;28;20034;-94
2023/04/24 09:00:46;;;;;;;38.28;11.15;;;8.10;99.90;;;;;;5015166;28;20125;-95
2023/04/24 09:03:15;;;;;;;35.15;10.30;;;8.10;99.90;;;;;;5011388;28;20026;-96
2023/04/24 09:05:45;;;;;;;30.42;8.75;;;8.10;99.90;;;;;;5018478;28;20088;-94
2023/04/24 09:08:13;;;;;;;36.40;9.63;;;8.10;99.90;;;;;;5017747;28;20129;-96
2023/04/24 09:10:39;;;;;;;38.28;10.82;;;8.10;99.90;;;;;;5016577;28;20026;-95
2023/04/24 09:13:05;;;;;;;30.63;8.23;;;8.20;99.90;;;;;;5017792;28;20018;-95
2023/04/24 09:15:31;;;;;;;22.70;6.15;;;8.20;99.90;;;;;;5013921;28;20030;-96
2023/04/24 09:17:57;;;;;;;38.28;7.72;;;8.30;99.90;;;;;;5013649;28;20025;-96
2023/04/24 09:20:23;;;;;;;29.20;6.13;;;8.40;99.90;;;;;;5015242;28;20110;-95
2023/04/24 09:22:53;;;;;;;23.13;7.40;;;8.40;99.90;;;;;;5008475;28;20022;-95
2023/04/24 09:25:18;;;;;;;25.80;6.45;;;8.50;99.90;;;;;;5012110;28;20029;-95
2023/04/24 09:27:45;;;;;;;23.00;6.18;;;8.50;99.90;;;;;;5015999;28;20026;-96
2023/04/24 09:30:11;;;;;;;25.88;6.50;;;8.60;99.90;;;;;;5010273;28;20034;-94
2023/04/24 09:32:37;;;;;;;24.10;6.35;;;8.60;99.90;;;;;;5004885;28;20061;-95
2023/04/24 09:35:14;;;;;;;26.33;7.25;;;8.60;99.90;;;;;;5013261;28;20077;-94
2023/04/24 09:37:46;;;;;;;26.02;5.90;;;8.70;99.90;;;;;;5013189;28;20096;-93
2023/04/24 09:40:16;;;;;;;;;;;8.70;99.90;;;;;;5006911;28;20041;-93
2023/04/24 09:42:52;;;;;;;22.08;6.00;;;8.70;99.90;;;;;;5010703;28;20036;-92
2023/04/24 09:45:18;;;;;;;23.67;6.18;;;8.70;99.90;;;;;;5008616;28;20491;-92
2023/04/24 09:47:43;;;;;;;27.40;6.32;;;8.70;99.90;;;;;;5015611;28;20108;-93
2023/04/24 09:50:11;;;;;;;23.73;5.53;;;8.70;99.90;;;;;;5007527;28;20049;-94
2023/04/24 09:52:40;;;;;;;15.98;5.38;;;8.80;99.90;;;;;;5013241;28;20021;-92
2023/04/24 09:55:11;;;;;;;28.60;5.82;;;8.90;99.90;;;;;;5021763;28;20022;-90
2023/04/24 09:57:51;;;;;;;22.45;5.22;;;9.00;99.90;;;;;;5015342;28;20022;-92
2023/04/24 10:00:31;;;;;;;24.08;6.10;;;9.10;99.90;;;;;;5007820;28;20033;-91
2023/04/24 10:03:03;;;;;;;24.33;4.88;;;9.20;99.90;;;;;;5014485;28;20060;-91
2023/04/24 10:05:32;;;;;;;21.58;4.40;;;9.40;99.90;;;;;;5013981;28;20034;-92
2023/04/24 10:08:06;;;;;;;18.00;3.80;;;9.40;99.90;;;;;;5012660;28;20026;-92
2023/04/24 10:10:34;;;;;;;16.40;4.60;;;9.40;99.90;;;;;;5013290;28;20033;-91
2023/04/24 10:13:00;;;;;;;12.68;4.03;;;9.60;99.90;;;;;;5014490;28;20474;-90
2023/04/24 10:15:27;;;;;;;14.70;3.78;;;9.70;99.90;;;;;;5011941;28;20137;-90
2023/04/24 10:17:53;;;;;;;14.80;3.00;;;9.90;99.90;;;;;;5011040;28;20032;-91
2023/04/24 10:20:24;;;;;;;13.73;3.47;;;10.00;99.90;;;;;;5017731;28;20037;-90
2023/04/24 10:22:52;;;;;;;12.52;3.33;;;10.10;99.90;;;;;;5016477;28;20029;-89
2023/04/24 10:25:23;;;;;;;11.73;3.03;;;10.00;99.90;;;;;;5012986;28;20030;-90
2023/04/24 10:27:50;;;;;;;11.95;2.92;;;9.90;99.90;;;;;;5004896;28;20030;-91
2023/04/24 10:30:16;;;;;;;15.70;3.70;;;9.80;99.90;;;;;;5014207;28;20065;-90
2023/04/24 10:32:42;;;;;;;10.00;1.95;;;9.70;99.90;;;;;;5015730;28;20394;-91
2023/04/24 10:35:12;;;;;;;12.15;2.63;;;9.70;99.90;;;;;;5016418;28;20014;-90
2023/04/24 10:37:42;;;;;;;14.35;2.72;;;9.70;99.90;;;;;;5015409;28;20032;-91
2023/04/24 10:40:09;;;;;;;7.43;2.33;;;9.70;99.90;;;;;;5013476;28;20092;-92
2023/04/24 10:42:39;;;;;;;12.52;2.65;;;9.80;99.90;;;;;;5015229;28;20034;-90
2023/04/24 10:45:06;;;;;;;14.23;2.38;;;9.80;99.90;;;;;;5017790;28;20022;-90
2023/04/24 10:47:41;;;;;;;11.40;2.20;;;9.70;99.90;;;;;;5013034;28;20097;-91
2023/04/24 10:50:11;;;;;;;13.18;2.55;;;9.50;99.90;;;;;;5016806;28;20017;-90
2023/04/24 10:52:48;;;;;;;9.13;1.35;;;9.40;99.90;;;;;;5011077;28;20390;-89
2023/04/24 10:55:15;;;;;;;11.35;1.52;;;9.30;99.90;;;;;;5000904;28;20045;-90
2023/04/24 10:58:01;;;;;;;6.97;1.27;;;9.20;99.90;;;;;;5011437;28;20097;-91
2023/04/24 11:00:27;;;;;;;3.80;1.13;;;9.10;99.90;;;;;;5006371;28;20089;-89
2023/04/24 11:02:53;;;;;;;7.97;1.35;;;9.20;99.90;;;;;;5012084;28;20022;-89
2023/04/24 11:05:20;;;;;;;6.47;0.90;;;9.50;99.90;;;;;;5009923;28;20072;-91
2023/04/24 11:08:15;;;;;;;6.63;0.80;;;9.70;99.90;;;;;;5013921;28;20018;-90
2023/04/24 11:10:45;;;;;;;5.00;0.80;;;9.80;99.90;;;;;;5014663;28;20087;-89
2023/04/24 11:13:10;;;;;;;3.33;0.73;;;9.90;99.90;;;;;;5013845;28;20022;-88
2023/04/24 11:16:20;;;;;;;9.57;0.70;;;10.10;99.90;;;;;;5087672;28;20526;-77
2023/04/24 11:18:51;;;;;;;6.03;0.73;;;10.10;99.90;;;;;;5062713;28;20031;-76
2023/04/24 11:21:17;;;;;;;7.32;0.77;;;10.00;99.90;;;;;;5067142;28;20408;-76
2023/04/24 11:23:44;;;;;;;5.05;1.40;;;10.00;99.90;;;;;;5064728;28;20507;-76
2023/04/24 11:26:11;;;;;;;8.07;0.70;;;9.80;99.90;;;;;;5069088;28;20029;-76
2023/04/24 11:28:37;;;;;;;6.22;0.52;;;9.60;99.90;;;;;;5064011;28;20021;-77
2023/04/24 11:31:36;;;;;;;4.40;0.70;;;9.50;99.90;;;;;;5059408;28;20017;-77
2023/04/24 11:34:16;;;;;;;9.55;0.80;;;9.50;99.90;;;;;;5068461;28;20040;-77
2023/04/24 11:36:48;;;;;;;3.58;1.10;;;9.50;99.90;;;;;;5070192;28;20028;-77
2023/04/24 11:39:15;;;;;;;7.22;0.70;;;9.50;99.90;;;;;;5069555;28;20025;-77
2023/04/24 11:41:40;;;;;;;5.43;0.80;;;9.40;99.90;;;;;;5062882;28;20033;-77
2023/04/24 11:44:07;;;;;;;5.28;0.80;;;9.20;99.90;;;;;;5066911;28;20031;-77
2023/04/24 11:46:33;;;;;;;5.18;0.68;;;9.10;99.90;;;;;;5061648;28;20024;-77
2023/04/24 11:48:59;;;;;;;8.55;1.25;;;9.10;99.90;;;;;;5062504;28;20473;-77
2023/04/24 11:51:27;;;;;;;5.70;0.70;;;9.20;99.90;;;;;;5062370;28;20028;-77
2023/04/24 11:53:56;;;;;;;8.52;0.73;;;9.50;99.90;;;;;;5069629;28;20020;-77
2023/04/24 11:56:25;;;;;;;4.38;0.60;;;9.80;99.90;;;;;;5063485;28;20033;-77
2023/04/24 11:58:54;;;;;;;5.50;0.70;;;10.00;99.90;;;;;;5067159;28;20108;-76
2023/04/24 12:01:20;;;;;;;5.55;0.85;;;10.20;99.90;;;;;;5062562;28;20044;-77
2023/04/24 12:03:51;;;;;;;3.72;0.40;;;10.40;99.90;;;;;;5061208;28;20029;-77
2023/04/24 12:06:17;;;;;;;2.03;0.40;;;10.50;99.90;;;;;;5064267;28;20017;-77
2023/04/24 12:08:46;;;;;;;3.17;0.30;;;10.70;99.90;;;;;;5065183;28;20062;-77
2023/04/24 12:11:15;;;;;;;4.95;0.52;;;11.10;99.90;;;;;;5060537;28;20017;-77
2023/04/24 12:13:41;;;;;;;2.72;0.30;;;11.20;99.90;;;;;;5066048;28;20051;-76
2023/04/24 12:16:07;;;;;;;6.35;0.50;;;11.10;99.90;;;;;;5068621;28;20407;-77
2023/04/24 12:18:32;;;;;;;4.53;0.40;;;10.90;99.90;;;;;;5064603;28;20056;-77
2023/04/24 12:21:17;;;;;;;3.88;0.30;;;10.60;99.90;;;;;;5063553;28;20090;-76
2023/04/24 12:23:45;;;;;;;6.15;0.98;;;10.30;99.90;;;;;;5071243;28;20146;-77
2023/04/24 12:26:10;;;;;;;7.50;0.50;;;10.10;99.90;;;;;;5063468;28;20025;-77
2023/04/24 12:28:38;;;;;;;4.40;0.60;;;9.90;99.90;;;;;;5055964;28;20457;-77
2023/04/24 12:31:03;;;;;;;4.57;0.60;;;9.60;99.90;;;;;;5053455;28;20071;-77
2023/04/24 12:33:33;;;;;;;5.75;0.60;;;9.40;99.90;;;;;;5053216;28;20017;-77
2023/04/24 12:35:59;;;;;;;6.88;0.75;;;9.30;99.90;;;;;;5068128;28;20495;-76
2023/04/24 12:38:27;;;;;;;6.50;0.60;;;9.20;99.90;;;;;;5048238;28;20029;-77
2023/04/24 12:41:06;;;;;;;6.90;0.70;;;9.20;99.90;;;;;;5055082;28;20017;-76